Wetterdaten: Woche 17.08.20 - 23.08.20 (KW34)
Datum Zeit Temp. Aussen Temp. o. S. Temp +5cm Feuchte Auss Luftdruck Regen Sonnenschein Regendauer Solar Windben Empfang
17.08.2020 00:00 20,0 C 18,6 C 17,8 C 90 % 1010,2 hPa 0,0 l/m 0,00 h 0,00 h 0 W/m 2,2 km/h (1 Bft) 97,13 %
17.08.2020 01:00 19,6 C 18,3 C 17,7 C 91 % 1009,8 hPa 0,0 l/m 0,00 h 0,00 h 0 W/m 1,3 km/h (1 Bft) 99,22 %
17.08.2020 02:00 19,4 C 18,1 C 17,7 C 93 % 1009,4 hPa 0,0 l/m 0,00 h 0,00 h 0 W/m 0,1 km/h (0 Bft) 97,30 %
17.08.2020 03:00 19,1 C 17,3 C 16,9 C 93 % 1009,2 hPa 0,0 l/m 0,00 h 0,00 h 0 W/m 0,0 km/h (0 Bft) 96,08 %
17.08.2020 04:00 18,7 C 17,5 C 16,8 C 94 % 1009,3 hPa 0,0 l/m 0,00 h 0,00 h 0 W/m 0,0 km/h (0 Bft) 98,61 %
17.08.2020 05:00 18,6 C 17,3 C 17,2 C 95 % 1009,5 hPa 0,0 l/m 0,00 h 0,00 h 0 W/m 0,0 km/h (0 Bft) 97,53 %
17.08.2020 06:00 18,8 C 18,0 C 17,7 C 97 % 1009,4 hPa 0,0 l/m 0,00 h 0,00 h 9 W/m 0,4 km/h (0 Bft) 97,46 %
17.08.2020 07:00 19,1 C 18,3 C 18,1 C 98 % 1009,7 hPa 0,2 l/m 0,00 h 0,33 h 22 W/m 1,2 km/h (1 Bft) 96,80 %
17.08.2020 08:00 19,5 C 19,2 C 18,6 C 98 % 1009,9 hPa 0,0 l/m 0,00 h 0,00 h 71 W/m 1,8 km/h (1 Bft) 97,93 %
17.08.2020 09:00 19,9 C 20,0 C 19,1 C 98 % 1010,1 hPa 0,0 l/m 0,00 h 0,07 h 91 W/m 9,7 km/h (2 Bft) 97,65 %
17.08.2020 10:00 20,7 C 22,0 C 20,5 C 96 % 1010,1 hPa 0,0 l/m 0,00 h 0,00 h 219 W/m 13,2 km/h (3 Bft) 96,23 %
17.08.2020 11:00 22,5 C 25,2 C 22,8 C 90 % 1010,1 hPa 0,0 l/m 0,60 h 0,00 h 366 W/m 10,7 km/h (2 Bft) 98,15 %
17.08.2020 12:00 24,5 C 28,5 C 24,1 C 77 % 1010,0 hPa 0,0 l/m 0,87 h 0,00 h 565 W/m 10,8 km/h (2 Bft) 96,50 %
17.08.2020 13:00 26,5 C 30,5 C 25,1 C 64 % 1009,7 hPa 0,0 l/m 0,70 h 0,00 h 612 W/m 11,3 km/h (2 Bft) 97,36 %
17.08.2020 14:00 28,7 C 32,6 C 27,4 C 53 % 1009,4 hPa 0,0 l/m 0,80 h 0,00 h 641 W/m 13,1 km/h (3 Bft) 98,57 %
17.08.2020 15:00 28,1 C 26,8 C 24,2 C 56 % 1009,3 hPa 0,2 l/m 0,23 h 0,23 h 250 W/m 9,3 km/h (2 Bft) 97,00 %
17.08.2020 16:00 24,3 C 22,0 C 19,6 C 81 % 1009,4 hPa 1,8 l/m 0,53 h 0,43 h 410 W/m 6,3 km/h (2 Bft) 98,51 %
17.08.2020 17:00 25,8 C 27,8 C 21,1 C 76 % 1009,0 hPa 0,0 l/m 0,63 h 0,00 h 393 W/m 1,5 km/h (1 Bft) 97,08 %
17.08.2020 18:00 24,9 C 20,8 C 18,9 C 72 % 1008,9 hPa 0,4 l/m 0,00 h 0,30 h 80 W/m 11,0 km/h (2 Bft) 97,13 %
17.08.2020 19:00 21,1 C 17,6 C 17,0 C 83 % 1009,2 hPa 0,4 l/m 0,20 h 0,17 h 79 W/m 8,6 km/h (2 Bft) 99,43 %
17.08.2020 20:00 19,7 C 17,1 C 17,0 C 89 % 1009,3 hPa 0,2 l/m 0,00 h 0,00 h 11 W/m 0,1 km/h (0 Bft) 94,76 %
17.08.2020 21:00 18,8 C 16,6 C 16,3 C 91 % 1009,7 hPa 0,2 l/m 0,00 h 0,00 h 0 W/m 0,0 km/h (0 Bft) 97,98 %
17.08.2020 22:00 18,3 C 16,9 C 16,6 C 93 % 1010,3 hPa 0,0 l/m 0,00 h 0,00 h 0 W/m 0,0 km/h (0 Bft) 99,23 %
17.08.2020 23:00 18,3 C 16,6 C 16,2 C 95 % 1010,5 hPa 0,0 l/m 0,00 h 0,00 h 0 W/m 0,2 km/h (0 Bft) 95,36 %
18.08.2020 00:00 17,7 C 16,1 C 15,7 C 95 % 1010,8 hPa 0,2 l/m 0,00 h 0,00 h 0 W/m 0,0 km/h (0 Bft) 97,80 %
18.08.2020 01:00 17,5 C 16,7 C 16,2 C 97 % 1010,6 hPa 0,0 l/m 0,00 h 0,00 h 0 W/m 0,0 km/h (0 Bft) 98,23 %
18.08.2020 02:00 17,7 C 16,8 C 16,1 C 98 % 1010,4 hPa 0,0 l/m 0,00 h 0,00 h 0 W/m 0,1 km/h (0 Bft) 97,44 %
18.08.2020 03:00 17,1 C 15,8 C 15,0 C 97 % 1010,3 hPa 0,0 l/m 0,00 h 0,00 h 0 W/m 1,0 km/h (0 Bft) 97,01 %
18.08.2020 04:00 16,6 C 15,7 C 14,6 C 97 % 1010,5 hPa 0,0 l/m 0,00 h 0,00 h 0 W/m 0,4 km/h (0 Bft) 97,76 %
18.08.2020 05:00 16,3 C 15,6 C 14,4 C 97 % 1010,5 hPa 0,0 l/m 0,00 h 0,00 h 0 W/m 0,4 km/h (0 Bft) 97,58 %
18.08.2020 06:00 16,2 C 15,6 C 14,4 C 96 % 1010,6 hPa 0,0 l/m 0,00 h 0,00 h 7 W/m 2,9 km/h (1 Bft) 97,39 %
18.08.2020 07:00 16,4 C 15,9 C 14,7 C 96 % 1011,1 hPa 0,0 l/m 0,00 h 0,00 h 20 W/m 3,4 km/h (1 Bft) 97,00 %
18.08.2020 08:00 17,1 C 17,5 C 15,6 C 96 % 1011,5 hPa 0,0 l/m 0,07 h 0,00 h 73 W/m 5,5 km/h (1 Bft) 97,51 %
18.08.2020 09:00 18,6 C 21,8 C 21,2 C 91 % 1011,8 hPa 0,0 l/m 0,60 h 0,00 h 321 W/m 10,0 km/h (2 Bft) 97,71 %
18.08.2020 10:00 21,5 C 25,9 C 25,9 C 78 % 1011,9 hPa 0,2 l/m 0,93 h 0,00 h 576 W/m 9,3 km/h (2 Bft) 95,62 %
18.08.2020 11:00 23,7 C 28,9 C 22,8 C 69 % 1011,8 hPa 0,0 l/m 1,00 h 0,00 h 794 W/m 14,8 km/h (3 Bft) 99,22 %
18.08.2020 12:00 25,9 C 30,0 C 23,2 C 64 % 1011,5 hPa 0,0 l/m 0,73 h 0,00 h 650 W/m 10,2 km/h (2 Bft) 98,85 %
18.08.2020 13:00 26,2 C 29,6 C 23,5 C 63 % 1011,2 hPa 0,0 l/m 0,70 h 0,00 h 662 W/m 11,0 km/h (2 Bft) 94,52 %
18.08.2020 14:00 26,7 C 29,4 C 24,9 C 60 % 1010,9 hPa 0,0 l/m 0,47 h 0,00 h 544 W/m 11,5 km/h (2 Bft) 99,14 %
18.08.2020 15:00 26,0 C 29,2 C 24,3 C 59 % 1010,5 hPa 0,0 l/m 0,77 h 0,00 h 636 W/m 13,8 km/h (3 Bft) 98,15 %
18.08.2020 16:00 26,5 C 27,1 C 23,6 C 60 % 1010,3 hPa 0,0 l/m 0,30 h 0,00 h 341 W/m 9,2 km/h (2 Bft) 96,72 %
18.08.2020 17:00 25,0 C 24,5 C 22,7 C 62 % 1010,4 hPa 0,0 l/m 0,23 h 0,00 h 176 W/m 9,3 km/h (2 Bft) 97,86 %
18.08.2020 18:00 22,7 C 21,1 C 20,9 C 67 % 1010,7 hPa 0,0 l/m 0,00 h 0,00 h 69 W/m 9,4 km/h (2 Bft) 97,13 %
18.08.2020 19:00 21,7 C 21,1 C 20,5 C 67 % 1010,9 hPa 0,0 l/m 0,03 h 0,00 h 74 W/m 7,7 km/h (2 Bft) 97,29 %
18.08.2020 20:00 21,7 C 20,5 C 20,1 C 67 % 1011,3 hPa 0,0 l/m 0,00 h 0,00 h 20 W/m 12,2 km/h (2 Bft) 97,15 %
18.08.2020 21:00 20,4 C 18,2 C 18,0 C 80 % 1011,6 hPa 0,0 l/m 0,00 h 0,00 h 0 W/m 10,1 km/h (2 Bft) 97,43 %
18.08.2020 22:00 18,7 C 16,9 C 16,9 C 84 % 1011,9 hPa 0,0 l/m 0,00 h 0,00 h 0 W/m 6,7 km/h (2 Bft) 97,72 %
18.08.2020 23:00 17,7 C 16,0 C 16,0 C 87 % 1012,0 hPa 0,0 l/m 0,00 h 0,00 h 0 W/m 6,4 km/h (2 Bft) 99,00 %
19.08.2020 00:00 17,0 C 15,2 C 15,2 C 89 % 1012,0 hPa 0,0 l/m 0,00 h 0,00 h 0 W/m 0,8 km/h (0 Bft) 94,42 %
19.08.2020 01:00 16,3 C 14,3 C 14,4 C 91 % 1012,0 hPa 0,0 l/m 0,00 h 0,00 h 0 W/m 0,4 km/h (0 Bft) 98,51 %
19.08.2020 02:00 16,0 C 14,7 C 14,6 C 94 % 1011,9 hPa 0,0 l/m 0,00 h 0,00 h 0 W/m 2,6 km/h (1 Bft) 98,79 %
19.08.2020 03:00 15,9 C 14,5 C 14,4 C 96 % 1011,8 hPa 0,0 l/m 0,00 h 0,00 h 0 W/m 3,5 km/h (1 Bft) 96,23 %
19.08.2020 04:00 15,8 C 14,4 C 14,4 C 97 % 1011,5 hPa 0,0 l/m 0,00 h 0,00 h 0 W/m 3,0 km/h (1 Bft) 97,56 %
19.08.2020 05:00 15,6 C 14,4 C 14,3 C 97 % 1011,3 hPa 0,0 l/m 0,00 h 0,00 h 0 W/m 5,1 km/h (1 Bft) 97,50 %
19.08.2020 06:00 15,2 C 14,1 C 13,9 C 98 % 1011,2 hPa 0,0 l/m 0,00 h 0,00 h 8 W/m 5,9 km/h (2 Bft) 97,57 %
19.08.2020 07:00 15,3 C 14,9 C 14,4 C 98 % 1011,0 hPa 0,0 l/m 0,00 h 0,00 h 27 W/m 8,1 km/h (2 Bft) 98,63 %
19.08.2020 08:00 16,2 C 17,4 C 16,2 C 99 % 1010,8 hPa 0,0 l/m 0,07 h 0,00 h 92 W/m 11,7 km/h (2 Bft) 93,17 %
19.08.2020 09:00 18,3 C 21,9 C 22,2 C 94 % 1010,8 hPa 0,0 l/m 0,70 h 0,00 h 299 W/m 11,8 km/h (2 Bft) 98,25 %
19.08.2020 10:00 22,1 C 27,1 C 26,7 C 79 % 1010,6 hPa 0,0 l/m 1,00 h 0,00 h 584 W/m 14,3 km/h (3 Bft) 98,65 %
19.08.2020 11:00 24,5 C 29,3 C 22,8 C 70 % 1010,3 hPa 0,0 l/m 1,00 h 0,00 h 718 W/m 15,0 km/h (3 Bft) 96,72 %
19.08.2020 12:00 26,3 C 31,7 C 24,2 C 62 % 1009,9 hPa 0,0 l/m 1,00 h 0,00 h 833 W/m 16,2 km/h (3 Bft) 97,86 %
19.08.2020 13:00 27,8 C 32,9 C 25,8 C 57 % 1009,3 hPa 0,0 l/m 1,00 h 0,00 h 887 W/m 17,1 km/h (3 Bft) 98,01 %
19.08.2020 14:00 28,4 C 32,0 C 26,9 C 57 % 1008,9 hPa 0,0 l/m 0,90 h 0,00 h 689 W/m 15,5 km/h (3 Bft) 97,08 %
19.08.2020 15:00 28,3 C 31,5 C 26,6 C 56 % 1008,3 hPa 0,0 l/m 0,80 h 0,00 h 669 W/m 19,1 km/h (3 Bft) 97,01 %
19.08.2020 16:00 28,9 C 32,1 C 27,4 C 53 % 1007,7 hPa 0,0 l/m 0,93 h 0,00 h 674 W/m 20,4 km/h (4 Bft) 98,23 %
19.08.2020 17:00 29,2 C 30,2 C 26,8 C 52 % 1007,5 hPa 0,0 l/m 0,80 h 0,00 h 401 W/m 20,7 km/h (4 Bft) 98,93 %
19.08.2020 18:00 28,1 C 27,5 C 25,7 C 55 % 1006,9 hPa 0,0 l/m 0,50 h 0,00 h 190 W/m 19,3 km/h (3 Bft) 95,21 %
19.08.2020 19:00 26,8 C 25,5 C 24,4 C 58 % 1006,6 hPa 0,0 l/m 0,00 h 0,00 h 54 W/m 15,0 km/h (3 Bft) 97,79 %
19.08.2020 20:00 25,8 C 24,2 C 23,5 C 62 % 1006,5 hPa 0,0 l/m 0,00 h 0,00 h 8 W/m 11,2 km/h (2 Bft) 99,79 %
19.08.2020 21:00 25,0 C 23,3 C 22,6 C 66 % 1006,5 hPa 0,0 l/m 0,00 h 0,07 h 0 W/m 8,5 km/h (2 Bft) 95,30 %
19.08.2020 22:00 24,3 C 22,8 C 22,0 C 69 % 1006,2 hPa 0,0 l/m 0,00 h 0,00 h 0 W/m 6,4 km/h (2 Bft) 97,86 %
19.08.2020 23:00 23,7 C 21,2 C 20,6 C 72 % 1006,1 hPa 0,0 l/m 0,00 h 0,37 h 0 W/m 7,3 km/h (2 Bft) 99,72 %
20.08.2020 00:00 22,8 C 21,4 C 20,0 C 76 % 1006,0 hPa 0,0 l/m 0,00 h 0,10 h 0 W/m 13,3 km/h (3 Bft) 95,29 %
20.08.2020 01:00 22,9 C 21,7 C 21,1 C 75 % 1006,4 hPa 0,0 l/m 0,00 h 0,00 h 0 W/m 16,6 km/h (3 Bft) 97,23 %
20.08.2020 02:00 22,5 C 21,0 C 20,6 C 78 % 1006,3 hPa 0,0 l/m 0,00 h 0,00 h 0 W/m 9,1 km/h (2 Bft) 99,07 %
20.08.2020 03:00 22,0 C 20,4 C 20,3 C 80 % 1006,1 hPa 0,0 l/m 0,00 h 0,10 h 0 W/m 6,0 km/h (2 Bft) 96,87 %
20.08.2020 04:00 21,6 C 19,1 C 18,7 C 85 % 1006,3 hPa 0,0 l/m 0,00 h 0,20 h 0 W/m 6,4 km/h (2 Bft) 96,94 %
20.08.2020 05:00 21,1 C 19,3 C 18,8 C 88 % 1006,3 hPa 0,0 l/m 0,00 h 0,10 h 0 W/m 2,5 km/h (1 Bft) 97,62 %
20.08.2020 06:00 20,7 C 19,4 C 18,9 C 92 % 1006,8 hPa 0,0 l/m 0,00 h 0,00 h 8 W/m 1,3 km/h (1 Bft) 97,27 %
20.08.2020 07:00 20,6 C 19,9 C 19,4 C 93 % 1007,2 hPa 0,0 l/m 0,00 h 0,00 h 32 W/m 3,4 km/h (1 Bft) 98,08 %
20.08.2020 08:00 20,9 C 20,5 C 19,9 C 93 % 1007,9 hPa 0,0 l/m 0,00 h 0,07 h 66 W/m 1,1 km/h (0 Bft) 96,42 %
20.08.2020 09:00 21,7 C 23,2 C 22,2 C 93 % 1008,4 hPa 0,0 l/m 0,13 h 0,00 h 179 W/m 1,3 km/h (1 Bft) 98,22 %
20.08.2020 10:00 24,8 C 29,1 C 28,5 C 84 % 1008,8 hPa 0,0 l/m 0,93 h 0,00 h 453 W/m 5,3 km/h (1 Bft) 97,15 %
20.08.2020 11:00 26,7 C 30,1 C 26,3 C 76 % 1008,9 hPa 0,0 l/m 0,83 h 0,00 h 444 W/m 6,4 km/h (2 Bft) 96,94 %
20.08.2020 12:00 28,3 C 32,2 C 27,0 C 70 % 1008,9 hPa 0,0 l/m 0,77 h 0,00 h 662 W/m 10,0 km/h (2 Bft) 98,42 %
20.08.2020 13:00 29,7 C 33,9 C 27,8 C 66 % 1008,9 hPa 0,0 l/m 1,00 h 0,00 h 758 W/m 10,4 km/h (2 Bft) 97,29 %
20.08.2020 14:00 29,9 C 32,3 C 28,7 C 65 % 1008,6 hPa 0,0 l/m 0,87 h 0,00 h 570 W/m 12,1 km/h (2 Bft) 98,36 %
20.08.2020 15:00 29,9 C 31,1 C 28,2 C 65 % 1008,2 hPa 0,0 l/m 0,80 h 0,00 h 409 W/m 11,9 km/h (2 Bft) 96,80 %
20.08.2020 16:00 29,5 C 29,6 C 27,5 C 67 % 1007,8 hPa 0,2 l/m 0,07 h 0,00 h 244 W/m 3,4 km/h (1 Bft) 97,14 %
20.08.2020 17:00 29,6 C 29,9 C 27,8 C 67 % 1007,2 hPa 0,0 l/m 0,60 h 0,00 h 258 W/m 4,0 km/h (1 Bft) 99,15 %
20.08.2020 18:00 30,1 C 29,8 C 27,6 C 65 % 1006,9 hPa 0,0 l/m 0,67 h 0,00 h 198 W/m 5,1 km/h (1 Bft) 96,03 %
20.08.2020 19:00 29,4 C 28,0 C 26,8 C 66 % 1006,6 hPa 0,0 l/m 0,00 h 0,00 h 55 W/m 2,9 km/h (1 Bft) 97,36 %
20.08.2020 20:00 28,5 C 27,2 C 26,4 C 67 % 1006,4 hPa 0,0 l/m 0,00 h 0,00 h 8 W/m 11,0 km/h (2 Bft) 100,00 %
20.08.2020 21:00 28,5 C 27,2 C 26,7 C 66 % 1006,6 hPa 0,0 l/m 0,00 h 0,03 h 0 W/m 15,4 km/h (3 Bft) 96,01 %
20.08.2020 22:00 28,5 C 27,0 C 26,1 C 66 % 1006,8 hPa 0,0 l/m 0,00 h 0,00 h 0 W/m 2,7 km/h (1 Bft) 97,41 %
20.08.2020 23:00 27,6 C 25,2 C 24,4 C 70 % 1006,7 hPa 0,0 l/m 0,00 h 0,13 h 0 W/m 0,6 km/h (0 Bft) 98,58 %
21.08.2020 00:00 26,7 C 25,3 C 24,5 C 70 % 1006,4 hPa 0,0 l/m 0,00 h 0,00 h 0 W/m 2,3 km/h (1 Bft) 97,44 %
21.08.2020 01:00 26,4 C 25,2 C 24,5 C 70 % 1006,4 hPa 0,0 l/m 0,00 h 0,00 h 0 W/m 5,3 km/h (1 Bft) 97,43 %
21.08.2020 02:00 26,3 C 24,1 C 23,6 C 71 % 1006,6 hPa 0,4 l/m 0,00 h 0,17 h 0 W/m 0,0 km/h (0 Bft) 97,37 %
21.08.2020 03:00 24,5 C 20,0 C 19,6 C 80 % 1006,4 hPa 0,4 l/m 0,00 h 0,43 h 0 W/m 5,9 km/h (2 Bft) 97,99 %
21.08.2020 04:00 22,9 C 20,0 C 19,4 C 86 % 1006,1 hPa 0,0 l/m 0,00 h 0,00 h 0 W/m 0,0 km/h (0 Bft) 95,95 %
21.08.2020 05:00 22,3 C 20,0 C 19,7 C 90 % 1005,6 hPa 0,4 l/m 0,00 h 0,10 h 0 W/m 0,2 km/h (0 Bft) 97,79 %
21.08.2020 06:00 22,2 C 20,6 C 19,5 C 92 % 1005,9 hPa 0,0 l/m 0,00 h 0,00 h 12 W/m 0,3 km/h (0 Bft) 99,71 %
21.08.2020 07:00 22,6 C 22,1 C 20,1 C 89 % 1007,2 hPa 0,0 l/m 0,00 h 0,00 h 21 W/m 1,0 km/h (0 Bft) 94,58 %
21.08.2020 08:00 23,2 C 22,2 C 20,5 C 79 % 1008,6 hPa 0,2 l/m 0,00 h 0,13 h 22 W/m 1,7 km/h (1 Bft) 97,87 %
21.08.2020 09:00 22,4 C 19,7 C 19,5 C 86 % 1008,8 hPa 0,2 l/m 0,00 h 0,50 h 47 W/m 0,2 km/h (0 Bft) 99,79 %
21.08.2020 10:00 22,2 C 20,7 C 20,1 C 89 % 1008,6 hPa 0,0 l/m 0,00 h 0,57 h 89 W/m 4,7 km/h (1 Bft) 94,94 %
21.08.2020 11:00 22,4 C 22,9 C 20,8 C 88 % 1009,1 hPa 0,0 l/m 0,13 h 0,27 h 218 W/m 5,4 km/h (1 Bft) 98,36 %
21.08.2020 12:00 26,4 C 31,5 C 25,1 C 75 % 1009,2 hPa 0,0 l/m 0,93 h 0,00 h 710 W/m 16,8 km/h (3 Bft) 99,19 %
21.08.2020 13:00 29,6 C 33,5 C 27,6 C 64 % 1009,5 hPa 0,2 l/m 0,77 h 0,00 h 738 W/m 20,4 km/h (4 Bft) 96,37 %
21.08.2020 14:00 29,6 C 30,4 C 27,4 C 64 % 1009,8 hPa 0,0 l/m 0,33 h 0,00 h 310 W/m 13,4 km/h (3 Bft) 97,87 %
21.08.2020 15:00 30,2 C 31,2 C 28,2 C 60 % 1009,6 hPa 0,0 l/m 0,47 h 0,00 h 318 W/m 15,3 km/h (3 Bft) 98,15 %
21.08.2020 16:00 28,8 C 29,6 C 26,7 C 67 % 1009,5 hPa 0,0 l/m 0,47 h 0,03 h 345 W/m 7,1 km/h (2 Bft) 97,08 %
21.08.2020 17:00 29,5 C 28,4 C 26,8 C 62 % 1009,5 hPa 0,0 l/m 0,23 h 0,10 h 183 W/m 15,6 km/h (3 Bft) 98,43 %
21.08.2020 18:00 27,2 C 26,5 C 24,7 C 70 % 1010,1 hPa 0,0 l/m 0,33 h 0,00 h 186 W/m 19,9 km/h (4 Bft) 96,94 %
21.08.2020 19:00 27,1 C 25,9 C 24,7 C 70 % 1010,0 hPa 0,0 l/m 0,00 h 0,00 h 30 W/m 10,8 km/h (2 Bft) 97,72 %
21.08.2020 20:00 26,4 C 25,3 C 24,3 C 67 % 1010,3 hPa 0,0 l/m 0,20 h 0,00 h 18 W/m 10,6 km/h (2 Bft) 97,36 %
21.08.2020 21:00 25,7 C 23,8 C 23,2 C 68 % 1010,9 hPa 0,0 l/m 0,00 h 0,00 h 0 W/m 1,5 km/h (1 Bft) 97,18 %
21.08.2020 22:00 24,5 C 22,8 C 22,3 C 72 % 1011,2 hPa 0,0 l/m 0,00 h 0,00 h 0 W/m 0,5 km/h (0 Bft) 98,34 %
21.08.2020 23:00 23,8 C 22,4 C 21,8 C 76 % 1011,4 hPa 0,0 l/m 0,00 h 0,00 h 0 W/m 1,1 km/h (0 Bft) 96,96 %
22.08.2020 00:00 23,2 C 22,0 C 21,5 C 78 % 1011,7 hPa 0,0 l/m 0,00 h 0,00 h 0 W/m 2,2 km/h (1 Bft) 97,31 %
22.08.2020 01:00 22,8 C 21,0 C 20,8 C 79 % 1012,1 hPa 0,0 l/m 0,00 h 0,00 h 0 W/m 0,8 km/h (0 Bft) 98,16 %
22.08.2020 02:00 21,6 C 20,0 C 19,8 C 81 % 1012,1 hPa 0,0 l/m 0,00 h 0,00 h 0 W/m 0,0 km/h (0 Bft) 97,02 %
22.08.2020 03:00 21,0 C 19,7 C 19,7 C 81 % 1012,5 hPa 0,0 l/m 0,00 h 0,00 h 0 W/m 0,0 km/h (0 Bft) 98,72 %
22.08.2020 04:00 20,6 C 19,1 C 19,1 C 81 % 1012,8 hPa 0,0 l/m 0,00 h 0,00 h 0 W/m 0,0 km/h (0 Bft) 95,84 %
22.08.2020 05:00 20,0 C 18,4 C 18,4 C 82 % 1013,4 hPa 0,0 l/m 0,00 h 0,00 h 0 W/m 0,1 km/h (0 Bft) 97,97 %
22.08.2020 06:00 19,2 C 17,8 C 17,8 C 85 % 1014,0 hPa 0,0 l/m 0,00 h 0,00 h 6 W/m 0,5 km/h (0 Bft) 99,46 %
22.08.2020 07:00 18,9 C 18,4 C 18,1 C 85 % 1014,5 hPa 0,0 l/m 0,00 h 0,00 h 37 W/m 0,0 km/h (0 Bft) 94,44 %
22.08.2020 08:00 19,5 C 19,6 C 18,9 C 80 % 1014,9 hPa 0,0 l/m 0,07 h 0,00 h 107 W/m 4,9 km/h (1 Bft) 98,43 %
22.08.2020 09:00 20,5 C 23,0 C 23,6 C 75 % 1015,1 hPa 0,0 l/m 0,70 h 0,00 h 319 W/m 7,9 km/h (2 Bft) 99,29 %
22.08.2020 10:00 22,2 C 25,7 C 25,3 C 71 % 1015,3 hPa 0,0 l/m 1,00 h 0,00 h 616 W/m 10,7 km/h (2 Bft) 95,51 %
22.08.2020 11:00 23,0 C 26,1 C 22,9 C 67 % 1015,4 hPa 0,0 l/m 0,80 h 0,00 h 597 W/m 13,1 km/h (3 Bft) 97,58 %
22.08.2020 12:00 23,7 C 26,3 C 23,2 C 63 % 1015,3 hPa 0,0 l/m 0,50 h 0,00 h 500 W/m 19,3 km/h (3 Bft) 98,30 %
22.08.2020 13:00 25,2 C 27,7 C 24,2 C 57 % 1015,3 hPa 0,0 l/m 0,83 h 0,00 h 790 W/m 27,4 km/h (4 Bft) 97,93 %
22.08.2020 14:00 25,9 C 28,8 C 25,5 C 55 % 1015,2 hPa 0,0 l/m 0,90 h 0,00 h 769 W/m 26,8 km/h (4 Bft) 96,62 %
22.08.2020 15:00 26,2 C 28,8 C 25,2 C 54 % 1015,1 hPa 0,0 l/m 0,83 h 0,00 h 715 W/m 25,1 km/h (4 Bft) 97,79 %
22.08.2020 16:00 26,2 C 26,9 C 24,8 C 53 % 1014,9 hPa 0,0 l/m 0,73 h 0,00 h 412 W/m 22,7 km/h (4 Bft) 99,29 %
22.08.2020 17:00 23,2 C 21,7 C 21,8 C 62 % 1015,5 hPa 0,0 l/m 0,00 h 0,00 h 82 W/m 17,4 km/h (3 Bft) 94,45 %
22.08.2020 18:00 21,2 C 21,0 C 20,5 C 71 % 1015,6 hPa 0,0 l/m 0,53 h 0,00 h 151 W/m 3,9 km/h (1 Bft) 94,76 %
22.08.2020 19:00 21,7 C 21,0 C 20,6 C 71 % 1015,4 hPa 0,0 l/m 0,10 h 0,00 h 74 W/m 3,2 km/h (1 Bft) 95,16 %
22.08.2020 20:00 21,4 C 20,3 C 20,1 C 70 % 1015,5 hPa 0,0 l/m 0,00 h 0,00 h 16 W/m 2,3 km/h (1 Bft) 92,47 %
22.08.2020 21:00 21,2 C 19,9 C 19,8 C 71 % 1015,8 hPa 0,0 l/m 0,00 h 0,00 h 0 W/m 11,5 km/h (2 Bft) 98,58 %
22.08.2020 22:00 19,8 C 18,4 C 18,4 C 77 % 1015,9 hPa 0,0 l/m 0,00 h 0,00 h 0 W/m 13,2 km/h (3 Bft) 99,36 %
22.08.2020 23:00 18,9 C 17,6 C 17,7 C 77 % 1016,1 hPa 0,0 l/m 0,00 h 0,00 h 0 W/m 5,8 km/h (2 Bft) 95,57 %
23.08.2020 00:00 18,2 C 16,8 C 16,9 C 79 % 1016,2 hPa 0,0 l/m 0,00 h 0,00 h 0 W/m 3,1 km/h (1 Bft) 97,25 %
23.08.2020 01:00 17,7 C 16,7 C 16,5 C 80 % 1015,9 hPa 0,0 l/m 0,00 h 0,00 h 0 W/m 6,1 km/h (2 Bft) 99,22 %
23.08.2020 02:00 17,5 C 16,7 C 16,6 C 78 % 1015,5 hPa 0,0 l/m 0,00 h 0,00 h 0 W/m 8,5 km/h (2 Bft) 96,66 %
23.08.2020 03:00 17,5 C 16,7 C 16,5 C 78 % 1015,5 hPa 0,0 l/m 0,00 h 0,00 h 0 W/m 5,3 km/h (1 Bft) 97,72 %
23.08.2020 04:00 17,5 C 16,5 C 16,3 C 80 % 1015,4 hPa 0,0 l/m 0,00 h 0,00 h 0 W/m 3,8 km/h (1 Bft) 97,66 %
23.08.2020 05:00 17,3 C 16,0 C 15,9 C 82 % 1015,3 hPa 0,0 l/m 0,00 h 0,20 h 0 W/m 4,3 km/h (1 Bft) 96,80 %
23.08.2020 06:00 16,9 C 15,3 C 15,4 C 86 % 1015,3 hPa 0,0 l/m 0,00 h 0,27 h 7 W/m 4,7 km/h (1 Bft) 98,97 %
23.08.2020 07:00 16,4 C 15,6 C 15,2 C 89 % 1015,6 hPa 0,0 l/m 0,00 h 0,00 h 30 W/m 10,4 km/h (2 Bft) 95,58 %
23.08.2020 08:00 16,6 C 16,4 C 15,7 C 89 % 1015,8 hPa 0,0 l/m 0,13 h 0,00 h 79 W/m 10,2 km/h (2 Bft) 97,38 %
23.08.2020 09:00 18,1 C 20,1 C 19,6 C 80 % 1016,0 hPa 0,0 l/m 0,70 h 0,00 h 324 W/m 14,2 km/h (3 Bft) 99,36 %
23.08.2020 10:00 19,9 C 22,2 C 21,9 C 73 % 1016,1 hPa 0,0 l/m 0,67 h 0,00 h 459 W/m 15,3 km/h (3 Bft) 96,52 %
23.08.2020 11:00 20,1 C 21,3 C 19,4 C 71 % 1016,2 hPa 0,0 l/m 0,30 h 0,00 h 357 W/m 15,2 km/h (3 Bft) 98,57 %
23.08.2020 12:00 20,3 C 19,8 C 18,9 C 73 % 1016,4 hPa 0,6 l/m 0,27 h 0,20 h 257 W/m 13,2 km/h (3 Bft) 95,80 %
23.08.2020 13:00 19,3 C 20,6 C 17,8 C 82 % 1016,8 hPa 0,0 l/m 0,37 h 0,00 h 454 W/m 12,7 km/h (3 Bft) 97,87 %
23.08.2020 14:00 20,4 C 21,6 C 19,6 C 75 % 1016,6 hPa 0,0 l/m 0,27 h 0,00 h 300 W/m 15,1 km/h (3 Bft) 99,00 %
23.08.2020 15:00 20,7 C 19,2 C 19,0 C 74 % 1016,5 hPa 0,2 l/m 0,00 h 0,27 h 161 W/m 11,4 km/h (2 Bft) 96,71 %
23.08.2020 16:00 21,3 C 22,9 C 20,3 C 72 % 1016,5 hPa 0,0 l/m 0,37 h 0,00 h 319 W/m 14,2 km/h (3 Bft) 97,37 %
23.08.2020 17:00 21,5 C 21,3 C 20,2 C 69 % 1016,5 hPa 0,0 l/m 0,13 h 0,00 h 168 W/m 12,7 km/h (3 Bft) 97,71 %
23.08.2020 18:00 20,7 C 20,1 C 19,2 C 75 % 1016,5 hPa 0,0 l/m 0,27 h 0,07 h 132 W/m 10,0 km/h (2 Bft) 98,34 %
23.08.2020 19:00 20,1 C 19,2 C 18,8 C 77 % 1016,5 hPa 0,0 l/m 0,07 h 0,00 h 55 W/m 2,9 km/h (1 Bft) 97,16 %
23.08.2020 20:00 19,3 C 17,7 C 17,6 C 81 % 1016,9 hPa 0,0 l/m 0,00 h 0,00 h 12 W/m 3,2 km/h (1 Bft) 96,46 %
23.08.2020 21:00 18,2 C 16,8 C 16,9 C 84 % 1017,3 hPa 0,0 l/m 0,00 h 0,00 h 0 W/m 2,7 km/h (1 Bft) 99,01 %
23.08.2020 22:00 17,4 C 15,7 C 15,8 C 87 % 1017,3 hPa 0,0 l/m 0,00 h 0,00 h 0 W/m 0,9 km/h (0 Bft) 97,94 %
23.08.2020 23:00 16,7 C 15,7 C 15,6 C 89 % 1017,2 hPa 0,0 l/m 0,00 h 0,00 h 0 W/m 1,9 km/h (1 Bft) 96,42 %
Min-Datum _ 19.08.20 19.08.20 19.08.20 17.08.20 21.08.20 - - - - 17.08.20 22.08.20
_ Min-Zeit 06:52 01:18 01:26 14:46 05:40 - - - - 00:00 18:20
Minimum _ 15,1 C 13,9 C 13,9 C 49 % 1004,9 hPa - - - - 0,0 km/h (0 Bft) 76,60 %
Max-Datum _ 21.08.20 20.08.20 20.08.20 19.08.20 23.08.20 17.08.20 18.08.20 23.08.20 23.08.20 22.08.20 17.08.20
_ Max-Zeit 15:32 13:24 10:10 08:00 21:38 16:02 12:08 18:08 13:12 15:36 00:08
Maximum _ 30,6 C 36,1 C 33,3 C 99 % 1017,4 hPa 1,8 l/m 0,07 h 0,07 h 1060 W/m 70,8 km/h
O-SO (8 Bft)
100,00 %
Durchschnitt _ 22,3 C 22,3 C 20,8 C 78 % 1011,0 hPa #6,6 l/m #40:10 h #6:04 h 293 W/m 7,6 km/h (2 Bft) 97,45 %
© 2020 W. Hausmann